<?xml version="1.0" encoding="UTF-8" standalone="no" ?>
<gpx xmlns="http://www.topografix.com/GPX/1/1" xmlns:xsi="http://www.w3.org/2001/XMLSchema-instance" xsi:schemaLocation="http://www.topografix.com/GPX/1/1 http://www.topografix.com/GPX/1/1/gpx.xsd" version="1.1" creator="VisuGPX - https://www.visugpx.com">
  <metadata>
    <name>Suède</name>
  </metadata>
  <trk>
    <name><![CDATA[Tour d'Europe: étape 087]]></name>
    <trkseg>
      <trkpt lat="65.82938" lon="21.67173">
        <ele>28.480982</ele>
        <time>2020-09-23T09:16:26.481Z</time>
      </trkpt>
      <trkpt lat="65.82864" lon="21.67604">
        <ele>35.055625</ele>
        <time>2020-09-23T09:21:47.459Z</time>
      </trkpt>
      <trkpt lat="65.82686" lon="21.67857">
        <ele>41.640965</ele>
        <time>2020-09-23T09:23:03.445Z</time>
      </trkpt>
      <trkpt lat="65.82555" lon="21.68071">
        <ele>42.067002</ele>
        <time>2020-09-23T09:24:10.460Z</time>
      </trkpt>
      <trkpt lat="65.82488" lon="21.68524">
        <ele>43.405278</ele>
        <time>2020-09-23T09:25:11.474Z</time>
      </trkpt>
      <trkpt lat="65.82437" lon="21.6893">
        <ele>59.837403</ele>
        <time>2020-09-23T09:26:10.491Z</time>
      </trkpt>
      <trkpt lat="65.82226" lon="21.69057">
        <ele>47.019305</ele>
        <time>2020-09-23T09:27:03.463Z</time>
      </trkpt>
      <trkpt lat="65.8202" lon="21.69138">
        <ele>45.209008</ele>
        <time>2020-09-23T09:28:05.492Z</time>
      </trkpt>
      <trkpt lat="65.8181" lon="21.69225">
        <ele>47.152632</ele>
        <time>2020-09-23T09:29:11.484Z</time>
      </trkpt>
      <trkpt lat="65.81662" lon="21.6941">
        <ele>51.298121</ele>
        <time>2020-09-23T09:30:23.454Z</time>
      </trkpt>
      <trkpt lat="65.81579" lon="21.68853">
        <ele>50.893526</ele>
        <time>2020-09-23T09:31:23.453Z</time>
      </trkpt>
      <trkpt lat="65.81504" lon="21.68339">
        <ele>51.402458</ele>
        <time>2020-09-23T09:32:14.444Z</time>
      </trkpt>
      <trkpt lat="65.81398" lon="21.67899">
        <ele>48.108664</ele>
        <time>2020-09-23T09:32:59.462Z</time>
      </trkpt>
      <trkpt lat="65.81178" lon="21.67694">
        <ele>47.701558</ele>
        <time>2020-09-23T09:33:56.458Z</time>
      </trkpt>
      <trkpt lat="65.80971" lon="21.67715">
        <ele>47.657772</ele>
        <time>2020-09-23T09:34:58.458Z</time>
      </trkpt>
      <trkpt lat="65.80768" lon="21.67648">
        <ele>50.898982</ele>
        <time>2020-09-23T09:36:01.458Z</time>
      </trkpt>
      <trkpt lat="65.80597" lon="21.67375">
        <ele>60.963965</ele>
        <time>2020-09-23T09:37:02.482Z</time>
      </trkpt>
      <trkpt lat="65.80395" lon="21.67169">
        <ele>56.003311</ele>
        <time>2020-09-23T09:37:49.455Z</time>
      </trkpt>
      <trkpt lat="65.80199" lon="21.67161">
        <ele>42.386921</ele>
        <time>2020-09-23T09:38:45.467Z</time>
      </trkpt>
      <trkpt lat="65.80044" lon="21.66638">
        <ele>44.134619</ele>
        <time>2020-09-23T09:39:36.503Z</time>
      </trkpt>
      <trkpt lat="65.79929" lon="21.66224">
        <ele>65.478783</ele>
        <time>2020-09-23T09:41:21.483Z</time>
      </trkpt>
      <trkpt lat="65.79797" lon="21.66159">
        <ele>69.376325</ele>
        <time>2020-09-23T09:43:03.446Z</time>
      </trkpt>
      <trkpt lat="65.79625" lon="21.66533">
        <ele>64.31902</ele>
        <time>2020-09-23T09:44:06.486Z</time>
      </trkpt>
      <trkpt lat="65.7944" lon="21.66881">
        <ele>64.141704</ele>
        <time>2020-09-23T09:45:01.466Z</time>
      </trkpt>
      <trkpt lat="65.79259" lon="21.67133">
        <ele>59.106367</ele>
        <time>2020-09-23T09:45:41.494Z</time>
      </trkpt>
      <trkpt lat="65.79067" lon="21.67324">
        <ele>51.579472</ele>
        <time>2020-09-23T09:46:21.507Z</time>
      </trkpt>
      <trkpt lat="65.78859" lon="21.67465">
        <ele>54.01221</ele>
        <time>2020-09-23T09:47:08.454Z</time>
      </trkpt>
      <trkpt lat="65.78632" lon="21.6755">
        <ele>59.754016</ele>
        <time>2020-09-23T09:48:00.455Z</time>
      </trkpt>
      <trkpt lat="65.784" lon="21.67615">
        <ele>58.1665</ele>
        <time>2020-09-23T09:48:53.519Z</time>
      </trkpt>
      <trkpt lat="65.78172" lon="21.67687">
        <ele>54.940429</ele>
        <time>2020-09-23T09:49:44.457Z</time>
      </trkpt>
      <trkpt lat="65.77924" lon="21.67824">
        <ele>50.285914</ele>
        <time>2020-09-23T09:50:24.453Z</time>
      </trkpt>
      <trkpt lat="65.77693" lon="21.67987">
        <ele>44.952864</ele>
        <time>2020-09-23T09:51:04.464Z</time>
      </trkpt>
      <trkpt lat="65.77511" lon="21.68161">
        <ele>41.997068</ele>
        <time>2020-09-23T09:51:44.472Z</time>
      </trkpt>
      <trkpt lat="65.77323" lon="21.68385">
        <ele>40.664625</ele>
        <time>2020-09-23T09:52:27.477Z</time>
      </trkpt>
      <trkpt lat="65.77147" lon="21.68611">
        <ele>41.207293</ele>
        <time>2020-09-23T09:53:09.458Z</time>
      </trkpt>
      <trkpt lat="65.76975" lon="21.68831">
        <ele>39.569462</ele>
        <time>2020-09-23T09:53:49.494Z</time>
      </trkpt>
      <trkpt lat="65.76789" lon="21.69012">
        <ele>35.512849</ele>
        <time>2020-09-23T09:54:31.487Z</time>
      </trkpt>
      <trkpt lat="65.76552" lon="21.69118">
        <ele>35.652089</ele>
        <time>2020-09-23T09:55:27.461Z</time>
      </trkpt>
      <trkpt lat="65.76345" lon="21.69325">
        <ele>40.624551</ele>
        <time>2020-09-23T09:56:18.456Z</time>
      </trkpt>
      <trkpt lat="65.76178" lon="21.69709">
        <ele>56.744751</ele>
        <time>2020-09-23T09:57:19.479Z</time>
      </trkpt>
      <trkpt lat="65.76039" lon="21.70159">
        <ele>46.368544</ele>
        <time>2020-09-23T09:58:19.459Z</time>
      </trkpt>
      <trkpt lat="65.75871" lon="21.706">
        <ele>43.691776</ele>
        <time>2020-09-23T09:59:19.452Z</time>
      </trkpt>
      <trkpt lat="65.75692" lon="21.70991">
        <ele>42.247912</ele>
        <time>2020-09-23T10:00:18.465Z</time>
      </trkpt>
      <trkpt lat="65.75493" lon="21.71274">
        <ele>41.878211</ele>
        <time>2020-09-23T10:01:21.489Z</time>
      </trkpt>
      <trkpt lat="65.75311" lon="21.71529">
        <ele>41.94412</ele>
        <time>2020-09-23T10:02:21.468Z</time>
      </trkpt>
      <trkpt lat="65.75143" lon="21.71773">
        <ele>43.470788</ele>
        <time>2020-09-23T10:03:23.460Z</time>
      </trkpt>
      <trkpt lat="65.74964" lon="21.7205">
        <ele>49.04556</ele>
        <time>2020-09-23T10:04:32.497Z</time>
      </trkpt>
      <trkpt lat="65.74807" lon="21.72315">
        <ele>54.059074</ele>
        <time>2020-09-23T10:05:33.458Z</time>
      </trkpt>
      <trkpt lat="65.74626" lon="21.72518">
        <ele>54.089754</ele>
        <time>2020-09-23T10:06:39.465Z</time>
      </trkpt>
      <trkpt lat="65.74421" lon="21.72673">
        <ele>59.745321</ele>
        <time>2020-09-23T10:07:52.496Z</time>
      </trkpt>
      <trkpt lat="65.74203" lon="21.72832">
        <ele>63.16148</ele>
        <time>2020-09-23T10:08:55.489Z</time>
      </trkpt>
      <trkpt lat="65.73987" lon="21.73061">
        <ele>58.223096</ele>
        <time>2020-09-23T10:09:53.475Z</time>
      </trkpt>
      <trkpt lat="65.73826" lon="21.73323">
        <ele>58.091688</ele>
        <time>2020-09-23T10:10:34.476Z</time>
      </trkpt>
      <trkpt lat="65.73606" lon="21.73669">
        <ele>55.935076</ele>
        <time>2020-09-23T10:11:16.497Z</time>
      </trkpt>
      <trkpt lat="65.73363" lon="21.73785">
        <ele>50.803625</ele>
        <time>2020-09-23T10:11:56.464Z</time>
      </trkpt>
      <trkpt lat="65.73153" lon="21.73873">
        <ele>49.283587</ele>
        <time>2020-09-23T10:12:43.466Z</time>
      </trkpt>
      <trkpt lat="65.72944" lon="21.74049">
        <ele>45.715564</ele>
        <time>2020-09-23T10:13:34.477Z</time>
      </trkpt>
      <trkpt lat="65.72769" lon="21.74421">
        <ele>45.37954</ele>
        <time>2020-09-23T10:14:27.475Z</time>
      </trkpt>
      <trkpt lat="65.7261" lon="21.74727">
        <ele>44.512287</ele>
        <time>2020-09-23T10:15:11.470Z</time>
      </trkpt>
      <trkpt lat="65.72447" lon="21.75013">
        <ele>40.304384</ele>
        <time>2020-09-23T10:15:51.524Z</time>
      </trkpt>
      <trkpt lat="65.72267" lon="21.75398">
        <ele>33.877636</ele>
        <time>2020-09-23T10:16:33.484Z</time>
      </trkpt>
      <trkpt lat="65.72077" lon="21.7565">
        <ele>28.747587</ele>
        <time>2020-09-23T10:17:13.472Z</time>
      </trkpt>
      <trkpt lat="65.71845" lon="21.75698">
        <ele>29.785886</ele>
        <time>2020-09-23T10:18:11.490Z</time>
      </trkpt>
      <trkpt lat="65.71623" lon="21.75899">
        <ele>29.68315</ele>
        <time>2020-09-23T10:19:14.472Z</time>
      </trkpt>
      <trkpt lat="65.71412" lon="21.76122">
        <ele>29.574779</ele>
        <time>2020-09-23T10:20:14.485Z</time>
      </trkpt>
      <trkpt lat="65.71202" lon="21.7611">
        <ele>36.087942</ele>
        <time>2020-09-23T10:21:31.487Z</time>
      </trkpt>
      <trkpt lat="65.70991" lon="21.76055">
        <ele>39.700858</ele>
        <time>2020-09-23T10:22:47.511Z</time>
      </trkpt>
      <trkpt lat="65.70764" lon="21.76132">
        <ele>33.726888</ele>
        <time>2020-09-23T10:23:37.482Z</time>
      </trkpt>
      <trkpt lat="65.70571" lon="21.76402">
        <ele>30.687925</ele>
        <time>2020-09-23T10:24:17.475Z</time>
      </trkpt>
      <trkpt lat="65.70436" lon="21.76779">
        <ele>33.623673</ele>
        <time>2020-09-23T10:25:12.474Z</time>
      </trkpt>
      <trkpt lat="65.7022" lon="21.76961">
        <ele>32.622653</ele>
        <time>2020-09-23T10:26:14.463Z</time>
      </trkpt>
      <trkpt lat="65.7" lon="21.77208">
        <ele>30.786128</ele>
        <time>2020-09-23T10:27:12.500Z</time>
      </trkpt>
      <trkpt lat="65.69785" lon="21.77519">
        <ele>28.277415</ele>
        <time>2020-09-23T10:28:12.526Z</time>
      </trkpt>
      <trkpt lat="65.69597" lon="21.7781">
        <ele>30.044848</ele>
        <time>2020-09-23T10:29:12.508Z</time>
      </trkpt>
      <trkpt lat="65.694" lon="21.78087">
        <ele>30.944559</ele>
        <time>2020-09-23T10:30:33.470Z</time>
      </trkpt>
      <trkpt lat="65.69202" lon="21.783">
        <ele>29.77497</ele>
        <time>2020-09-23T10:31:33.485Z</time>
      </trkpt>
      <trkpt lat="65.68966" lon="21.7841">
        <ele>31.030239</ele>
        <time>2020-09-23T10:32:33.518Z</time>
      </trkpt>
      <trkpt lat="65.6875" lon="21.78438">
        <ele>33.658055</ele>
        <time>2020-09-23T10:33:48.469Z</time>
      </trkpt>
      <trkpt lat="65.68561" lon="21.78636">
        <ele>33.78963</ele>
        <time>2020-09-23T10:34:52.504Z</time>
      </trkpt>
      <trkpt lat="65.68462" lon="21.79122">
        <ele>33.502366</ele>
        <time>2020-09-23T10:35:52.481Z</time>
      </trkpt>
      <trkpt lat="65.6839" lon="21.79599">
        <ele>35.250868</ele>
        <time>2020-09-23T10:36:52.480Z</time>
      </trkpt>
      <trkpt lat="65.68229" lon="21.79974">
        <ele>36.4435</ele>
        <time>2020-09-23T10:37:48.483Z</time>
      </trkpt>
      <trkpt lat="65.6804" lon="21.80311">
        <ele>37.647105</ele>
        <time>2020-09-23T10:38:45.460Z</time>
      </trkpt>
      <trkpt lat="65.67874" lon="21.80126">
        <ele>36.494135</ele>
        <time>2020-09-23T10:39:34.465Z</time>
      </trkpt>
      <trkpt lat="65.67661" lon="21.79946">
        <ele>34.043452</ele>
        <time>2020-09-23T10:40:31.491Z</time>
      </trkpt>
      <trkpt lat="65.67482" lon="21.79864">
        <ele>32.70316</ele>
        <time>2020-09-23T10:41:44.495Z</time>
      </trkpt>
      <trkpt lat="65.67347" lon="21.80254">
        <ele>28.938824</ele>
        <time>2020-09-23T10:42:30.473Z</time>
      </trkpt>
      <trkpt lat="65.67191" lon="21.80679">
        <ele>27.146122</ele>
        <time>2020-09-23T10:43:23.485Z</time>
      </trkpt>
      <trkpt lat="65.67019" lon="21.80929">
        <ele>26.410407</ele>
        <time>2020-09-23T10:44:07.481Z</time>
      </trkpt>
      <trkpt lat="65.66829" lon="21.81237">
        <ele>29.207448</ele>
        <time>2020-09-23T10:45:06.473Z</time>
      </trkpt>
      <trkpt lat="65.66699" lon="21.81619">
        <ele>35.888105</ele>
        <time>2020-09-23T10:46:12.491Z</time>
      </trkpt>
      <trkpt lat="65.66513" lon="21.81889">
        <ele>35.387353</ele>
        <time>2020-09-23T10:47:26.477Z</time>
      </trkpt>
      <trkpt lat="65.66349" lon="21.82286">
        <ele>32.014894</ele>
        <time>2020-09-23T10:48:26.470Z</time>
      </trkpt>
      <trkpt lat="65.66189" lon="21.82613">
        <ele>33.114573</ele>
        <time>2020-09-23T10:49:26.484Z</time>
      </trkpt>
      <trkpt lat="65.66027" lon="21.83033">
        <ele>32.276595</ele>
        <time>2020-09-23T10:50:29.485Z</time>
      </trkpt>
      <trkpt lat="65.6595" lon="21.83521">
        <ele>31.720135</ele>
        <time>2020-09-23T10:51:17.507Z</time>
      </trkpt>
      <trkpt lat="65.65853" lon="21.84003">
        <ele>29.016428</ele>
        <time>2020-09-23T10:52:02.500Z</time>
      </trkpt>
      <trkpt lat="65.65725" lon="21.84425">
        <ele>24.229864</ele>
        <time>2020-09-23T10:52:44.511Z</time>
      </trkpt>
      <trkpt lat="65.65579" lon="21.84922">
        <ele>24.394363</ele>
        <time>2020-09-23T10:53:47.500Z</time>
      </trkpt>
      <trkpt lat="65.6546" lon="21.85356">
        <ele>25.502696</ele>
        <time>2020-09-23T10:54:47.503Z</time>
      </trkpt>
      <trkpt lat="65.6535" lon="21.85819">
        <ele>23.053983</ele>
        <time>2020-09-23T10:55:36.462Z</time>
      </trkpt>
      <trkpt lat="65.65234" lon="21.8629">
        <ele>24.818381</ele>
        <time>2020-09-23T10:56:42.486Z</time>
      </trkpt>
      <trkpt lat="65.65116" lon="21.86735">
        <ele>27.703706</ele>
        <time>2020-09-23T10:57:59.486Z</time>
      </trkpt>
      <trkpt lat="65.64994" lon="21.87188">
        <ele>29.761801</ele>
        <time>2020-09-23T10:59:19.471Z</time>
      </trkpt>
      <trkpt lat="65.6487" lon="21.87631">
        <ele>33.133979</ele>
        <time>2020-09-23T11:00:39.488Z</time>
      </trkpt>
      <trkpt lat="65.64717" lon="21.88039">
        <ele>37.152291</ele>
        <time>2020-09-23T11:02:02.481Z</time>
      </trkpt>
      <trkpt lat="65.64566" lon="21.88418">
        <ele>36.551776</ele>
        <time>2020-09-23T11:03:02.494Z</time>
      </trkpt>
      <trkpt lat="65.64406" lon="21.88845">
        <ele>30.845923</ele>
        <time>2020-09-23T11:04:02.501Z</time>
      </trkpt>
      <trkpt lat="65.64268" lon="21.89293">
        <ele>34.299309</ele>
        <time>2020-09-23T11:05:05.494Z</time>
      </trkpt>
      <trkpt lat="65.64142" lon="21.89736">
        <ele>33.917178</ele>
        <time>2020-09-23T11:06:05.509Z</time>
      </trkpt>
      <trkpt lat="65.64016" lon="21.90182">
        <ele>29.017439</ele>
        <time>2020-09-23T11:06:53.479Z</time>
      </trkpt>
      <trkpt lat="65.63875" lon="21.90677">
        <ele>26.369985</ele>
        <time>2020-09-23T11:07:51.507Z</time>
      </trkpt>
      <trkpt lat="65.63725" lon="21.91191">
        <ele>25.969179</ele>
        <time>2020-09-23T11:08:52.484Z</time>
      </trkpt>
      <trkpt lat="65.63595" lon="21.91591">
        <ele>36.336057</ele>
        <time>2020-09-23T11:10:05.481Z</time>
      </trkpt>
      <trkpt lat="65.63503" lon="21.91998">
        <ele>41.359033</ele>
        <time>2020-09-23T11:28:41.491Z</time>
      </trkpt>
      <trkpt lat="65.63375" lon="21.92446">
        <ele>46.453767</ele>
        <time>2020-09-23T11:30:00.510Z</time>
      </trkpt>
      <trkpt lat="65.63231" lon="21.9277">
        <ele>46.812831</ele>
        <time>2020-09-23T11:31:04.487Z</time>
      </trkpt>
      <trkpt lat="65.63038" lon="21.92866">
        <ele>44.81723</ele>
        <time>2020-09-23T11:32:04.518Z</time>
      </trkpt>
      <trkpt lat="65.62813" lon="21.92951">
        <ele>45.116292</ele>
        <time>2020-09-23T11:33:06.506Z</time>
      </trkpt>
      <trkpt lat="65.62625" lon="21.93146">
        <ele>50.965081</ele>
        <time>2020-09-23T11:34:13.493Z</time>
      </trkpt>
      <trkpt lat="65.62446" lon="21.93472">
        <ele>45.803996</ele>
        <time>2020-09-23T11:34:58.514Z</time>
      </trkpt>
      <trkpt lat="65.62263" lon="21.93768">
        <ele>36.505363</ele>
        <time>2020-09-23T11:35:38.506Z</time>
      </trkpt>
      <trkpt lat="65.62097" lon="21.94028">
        <ele>36.787875</ele>
        <time>2020-09-23T11:36:20.494Z</time>
      </trkpt>
      <trkpt lat="65.61907" lon="21.94334">
        <ele>39.465186</ele>
        <time>2020-09-23T11:37:20.513Z</time>
      </trkpt>
      <trkpt lat="65.61738" lon="21.94609">
        <ele>42.128034</ele>
        <time>2020-09-23T11:38:20.503Z</time>
      </trkpt>
      <trkpt lat="65.61543" lon="21.94921">
        <ele>38.242132</ele>
        <time>2020-09-23T11:39:04.501Z</time>
      </trkpt>
      <trkpt lat="65.61365" lon="21.9521">
        <ele>36.679233</ele>
        <time>2020-09-23T11:39:44.479Z</time>
      </trkpt>
      <trkpt lat="65.61168" lon="21.95526">
        <ele>32.282055</ele>
        <time>2020-09-23T11:40:24.513Z</time>
      </trkpt>
      <trkpt lat="65.60994" lon="21.95802">
        <ele>30.860536</ele>
        <time>2020-09-23T11:41:07.509Z</time>
      </trkpt>
      <trkpt lat="65.60797" lon="21.96112">
        <ele>38.099158</ele>
        <time>2020-09-23T11:42:14.484Z</time>
      </trkpt>
      <trkpt lat="65.60635" lon="21.96432">
        <ele>44.425164</ele>
        <time>2020-09-23T11:43:25.495Z</time>
      </trkpt>
      <trkpt lat="65.60499" lon="21.96831">
        <ele>38.880274</ele>
        <time>2020-09-23T11:44:10.507Z</time>
      </trkpt>
      <trkpt lat="65.60369" lon="21.97315">
        <ele>36.074416</ele>
        <time>2020-09-23T11:44:52.501Z</time>
      </trkpt>
      <trkpt lat="65.60254" lon="21.97746">
        <ele>38.7615</ele>
        <time>2020-09-23T11:45:32.507Z</time>
      </trkpt>
      <trkpt lat="65.60139" lon="21.98166">
        <ele>37.464743</ele>
        <time>2020-09-23T11:46:12.492Z</time>
      </trkpt>
      <trkpt lat="65.60018" lon="21.98615">
        <ele>35.942957</ele>
        <time>2020-09-23T11:47:05.529Z</time>
      </trkpt>
      <trkpt lat="65.5988" lon="21.99015">
        <ele>42.768277</ele>
        <time>2020-09-23T11:48:09.496Z</time>
      </trkpt>
      <trkpt lat="65.59713" lon="21.99332">
        <ele>42.707882</ele>
        <time>2020-09-23T11:48:58.480Z</time>
      </trkpt>
      <trkpt lat="65.59547" lon="21.9962">
        <ele>43.481284</ele>
        <time>2020-09-23T11:49:39.502Z</time>
      </trkpt>
      <trkpt lat="65.59355" lon="21.99905">
        <ele>49.45282</ele>
        <time>2020-09-23T11:50:34.515Z</time>
      </trkpt>
      <trkpt lat="65.59166" lon="22.00051">
        <ele>56.041405</ele>
        <time>2020-09-23T11:51:39.525Z</time>
      </trkpt>
      <trkpt lat="65.5897" lon="22.00212">
        <ele>46.225203</ele>
        <time>2020-09-23T11:52:39.503Z</time>
      </trkpt>
      <trkpt lat="65.58815" lon="22.00583">
        <ele>47.551035</ele>
        <time>2020-09-23T11:53:41.488Z</time>
      </trkpt>
      <trkpt lat="65.58752" lon="22.01097">
        <ele>47.72919</ele>
        <time>2020-09-23T11:54:35.489Z</time>
      </trkpt>
      <trkpt lat="65.5874" lon="22.01727">
        <ele>39.837106</ele>
        <time>2020-09-23T11:55:15.499Z</time>
      </trkpt>
      <trkpt lat="65.58721" lon="22.02232">
        <ele>35.139963</ele>
        <time>2020-09-23T11:56:00.489Z</time>
      </trkpt>
      <trkpt lat="65.58669" lon="22.02778">
        <ele>31.510985</ele>
        <time>2020-09-23T11:56:45.512Z</time>
      </trkpt>
      <trkpt lat="65.58498" lon="22.03064">
        <ele>30.605773</ele>
        <time>2020-09-23T11:57:33.499Z</time>
      </trkpt>
      <trkpt lat="65.58364" lon="22.03501">
        <ele>29.08118</ele>
        <time>2020-09-23T11:58:24.492Z</time>
      </trkpt>
      <trkpt lat="65.58245" lon="22.04028">
        <ele>30.832624</ele>
        <time>2020-09-23T11:59:21.504Z</time>
      </trkpt>
      <trkpt lat="65.58168" lon="22.04578">
        <ele>30.617932</ele>
        <time>2020-09-23T12:00:18.498Z</time>
      </trkpt>
      <trkpt lat="65.58155" lon="22.05075">
        <ele>28.26699</ele>
        <time>2020-09-23T12:01:03.487Z</time>
      </trkpt>
      <trkpt lat="65.58131" lon="22.05597">
        <ele>28.997076</ele>
        <time>2020-09-23T12:01:51.509Z</time>
      </trkpt>
      <trkpt lat="65.58081" lon="22.06136">
        <ele>34.818721</ele>
        <time>2020-09-23T12:03:00.491Z</time>
      </trkpt>
      <trkpt lat="65.58056" lon="22.06602">
        <ele>47.756582</ele>
        <time>2020-09-23T12:04:22.533Z</time>
      </trkpt>
      <trkpt lat="65.58038" lon="22.07086">
        <ele>51.715058</ele>
        <time>2020-09-23T12:05:32.487Z</time>
      </trkpt>
      <trkpt lat="65.57973" lon="22.07542">
        <ele>44.490583</ele>
        <time>2020-09-23T12:06:18.501Z</time>
      </trkpt>
      <trkpt lat="65.57895" lon="22.08008">
        <ele>44.506476</ele>
        <time>2020-09-23T12:06:58.501Z</time>
      </trkpt>
      <trkpt lat="65.57778" lon="22.08473">
        <ele>45.412359</ele>
        <time>2020-09-23T12:07:38.497Z</time>
      </trkpt>
      <trkpt lat="65.57736" lon="22.08978">
        <ele>41.159143</ele>
        <time>2020-09-23T12:08:18.518Z</time>
      </trkpt>
      <trkpt lat="65.57733" lon="22.095">
        <ele>42.405404</ele>
        <time>2020-09-23T12:09:00.506Z</time>
      </trkpt>
      <trkpt lat="65.57687" lon="22.09964">
        <ele>47.375039</ele>
        <time>2020-09-23T12:10:14.488Z</time>
      </trkpt>
      <trkpt lat="65.57693" lon="22.10539">
        <ele>44.479755</ele>
        <time>2020-09-23T12:10:57.504Z</time>
      </trkpt>
      <trkpt lat="65.57729" lon="22.11057">
        <ele>42.891401</ele>
        <time>2020-09-23T12:12:06.509Z</time>
      </trkpt>
      <trkpt lat="65.57804" lon="22.1158">
        <ele>36.983275</ele>
        <time>2020-09-23T12:12:59.515Z</time>
      </trkpt>
      <trkpt lat="65.57859" lon="22.12138">
        <ele>39.005541</ele>
        <time>2020-09-23T12:13:58.499Z</time>
      </trkpt>
      <trkpt lat="65.5792" lon="22.12705">
        <ele>39.042758</ele>
        <time>2020-09-23T12:15:00.492Z</time>
      </trkpt>
      <trkpt lat="65.57977" lon="22.1323">
        <ele>36.392538</ele>
        <time>2020-09-23T12:15:52.498Z</time>
      </trkpt>
      <trkpt lat="65.58023" lon="22.13716">
        <ele>40.486854</ele>
        <time>2020-09-23T12:16:37.556Z</time>
      </trkpt>
      <trkpt lat="65.58092" lon="22.14243">
        <ele>57.491983</ele>
        <time>2020-09-23T12:18:04.497Z</time>
      </trkpt>
      <trkpt lat="65.58131" lon="22.14632">
        <ele>48.99094</ele>
        <time>2020-09-23T12:19:05.499Z</time>
      </trkpt>
      <trkpt lat="65.58176" lon="22.1511">
        <ele>55.071779</ele>
        <time>2020-09-23T12:20:12.491Z</time>
      </trkpt>
      <trkpt lat="65.58233" lon="22.1562">
        <ele>52.636542</ele>
        <time>2020-09-23T12:21:01.523Z</time>
      </trkpt>
      <trkpt lat="65.58284" lon="22.16127">
        <ele>49.181116</ele>
        <time>2020-09-23T12:22:13.523Z</time>
      </trkpt>
      <trkpt lat="65.58381" lon="22.16259">
        <ele>48.795678</ele>
        <time>2020-09-23T12:24:03.503Z</time>
      </trkpt>
    </trkseg>
  </trk>
</gpx>